createdAt,value
2023-08-02T00:02:04.176Z,39.21
2023-08-02T00:04:30.858Z,39.47
2023-08-02T00:06:57.470Z,39.37
2023-08-02T00:09:24.085Z,39.43
2023-08-02T00:11:50.694Z,39.39
2023-08-02T00:14:17.308Z,39.45
2023-08-02T00:16:44.216Z,39.56
2023-08-02T00:19:11.096Z,39.57
2023-08-02T00:21:37.700Z,39.51
2023-08-02T00:24:04.305Z,39.53
2023-08-02T00:26:30.932Z,39.56
2023-08-02T00:28:57.536Z,39.53
2023-08-02T00:31:24.220Z,39.55
2023-08-02T00:33:50.887Z,39.59
2023-08-02T00:36:17.526Z,39.51
2023-08-02T00:38:44.129Z,39.69
2023-08-02T00:41:10.743Z,39.70
2023-08-02T00:43:37.336Z,39.69
2023-08-02T00:46:04.130Z,39.75
2023-08-02T00:48:31.107Z,39.79
2023-08-02T00:50:57.871Z,39.70
2023-08-02T00:53:24.502Z,39.89
2023-08-02T00:55:51.090Z,39.86
2023-08-02T00:58:17.709Z,40.13
2023-08-02T01:00:44.312Z,40.17
2023-08-02T01:03:11.555Z,40.18
2023-08-02T01:05:38.312Z,40.22
2023-08-02T01:08:04.969Z,40.16
2023-08-02T01:10:31.569Z,40.28
2023-08-02T01:12:58.170Z,40.32
2023-08-02T01:15:24.788Z,40.38
2023-08-02T01:17:51.434Z,40.40
2023-08-02T01:20:18.049Z,40.34
2023-08-02T01:22:44.687Z,40.46
2023-08-02T01:25:11.302Z,40.39
2023-08-02T01:27:37.914Z,40.25
2023-08-02T01:30:04.512Z,40.23
2023-08-02T01:32:31.143Z,40.29
2023-08-02T01:34:57.824Z,40.28
2023-08-02T01:37:24.436Z,40.33
2023-08-02T01:39:51.079Z,40.18
2023-08-02T01:42:17.750Z,40.24
2023-08-02T01:44:44.463Z,40.37
2023-08-02T01:47:11.088Z,40.40
2023-08-02T01:49:37.711Z,40.53
2023-08-02T01:52:04.371Z,40.49
2023-08-02T01:54:31.002Z,40.48
2023-08-02T01:56:57.614Z,40.59
2023-08-02T01:59:24.346Z,40.49
2023-08-02T02:01:50.984Z,40.59
2023-08-02T02:04:17.590Z,40.70
2023-08-02T02:06:44.463Z,40.71
2023-08-02T02:09:11.389Z,40.72
2023-08-02T02:11:37.985Z,40.71
2023-08-02T02:14:04.611Z,40.68
2023-08-02T02:16:31.225Z,40.68
2023-08-02T02:18:57.874Z,40.63
2023-08-02T02:21:24.493Z,40.78
2023-08-02T02:23:51.117Z,40.66
2023-08-02T02:26:17.732Z,40.66
2023-08-02T02:28:44.327Z,40.57
2023-08-02T02:31:10.931Z,40.52
2023-08-02T02:33:37.558Z,40.56
2023-08-02T02:36:04.163Z,40.56
2023-08-02T02:38:30.767Z,40.62
2023-08-02T02:40:57.379Z,40.58
2023-08-02T02:43:23.980Z,40.67
2023-08-02T02:45:50.600Z,40.59
2023-08-02T02:48:17.209Z,40.68
2023-08-02T02:50:43.824Z,40.83
2023-08-02T02:53:10.422Z,40.68
2023-08-02T02:55:37.047Z,40.77
2023-08-02T02:58:03.661Z,40.76
2023-08-02T03:00:30.257Z,40.84
2023-08-02T03:02:56.928Z,40.88
2023-08-02T03:05:23.559Z,40.85
2023-08-02T03:07:50.169Z,40.75
2023-08-02T03:10:16.779Z,40.74
2023-08-02T03:12:43.365Z,40.67
2023-08-02T03:15:09.979Z,40.76
2023-08-02T03:17:36.573Z,40.75
2023-08-02T03:20:03.177Z,40.45
2023-08-02T03:22:29.779Z,40.33
2023-08-02T03:24:56.408Z,40.32
2023-08-02T03:27:23.012Z,40.29
2023-08-02T03:29:49.634Z,40.23
2023-08-02T03:32:16.246Z,40.21
2023-08-02T03:34:42.870Z,40.25
2023-08-02T03:37:09.498Z,40.19
2023-08-02T03:39:36.100Z,40.34
2023-08-02T03:42:02.686Z,40.35
2023-08-02T03:44:29.295Z,40.25
2023-08-02T03:46:55.901Z,40.30
2023-08-02T03:49:22.498Z,40.32
2023-08-02T03:51:49.118Z,40.41
2023-08-02T03:54:15.712Z,40.33
2023-08-02T03:56:42.652Z,40.26
2023-08-02T03:59:09.468Z,40.30
2023-08-02T04:01:36.093Z,40.38
2023-08-02T04:04:02.761Z,40.37
2023-08-02T04:06:29.419Z,40.35
2023-08-02T04:08:56.071Z,40.36
2023-08-02T04:11:22.661Z,40.40
2023-08-02T04:13:49.278Z,40.42
2023-08-02T04:16:15.933Z,40.40
2023-08-02T04:18:42.553Z,40.36
2023-08-02T04:21:09.155Z,40.28
2023-08-02T04:23:35.757Z,40.16
2023-08-02T04:26:02.383Z,40.20
2023-08-02T04:28:29.001Z,40.18
2023-08-02T04:30:55.626Z,40.14
2023-08-02T04:33:22.296Z,40.13
2023-08-02T04:35:48.950Z,40.18
2023-08-02T04:38:15.556Z,40.05
2023-08-02T04:40:42.178Z,40.13
2023-08-02T04:43:08.760Z,40.08
2023-08-02T04:45:35.383Z,40.04
2023-08-02T04:48:02.030Z,40.21
2023-08-02T04:50:28.742Z,40.04
2023-08-02T04:52:55.348Z,40.20
2023-08-02T04:55:21.932Z,40.07
2023-08-02T04:57:48.588Z,40.21
2023-08-02T05:00:15.224Z,40.11
2023-08-02T05:02:41.914Z,40.07
2023-08-02T05:05:08.542Z,40.18
2023-08-02T05:07:35.536Z,40.22
2023-08-02T05:10:02.997Z,40.03
2023-08-02T05:12:29.617Z,40.14
2023-08-02T05:14:56.212Z,40.14
2023-08-02T05:17:22.832Z,40.18
2023-08-02T05:19:49.469Z,40.16
2023-08-02T05:22:16.074Z,40.14
2023-08-02T05:24:42.681Z,40.24
2023-08-02T05:27:09.273Z,40.09
2023-08-02T05:29:35.886Z,40.17
2023-08-02T05:32:02.562Z,40.00
2023-08-02T05:34:29.183Z,39.93
2023-08-02T05:36:55.772Z,39.96
2023-08-02T05:39:22.377Z,39.75
2023-08-02T05:41:48.995Z,39.27
2023-08-02T05:44:15.613Z,39.13
2023-08-02T05:46:42.225Z,39.35
2023-08-02T05:49:08.832Z,39.42
2023-08-02T05:51:35.429Z,39.82
2023-08-02T05:54:02.017Z,39.59
2023-08-02T05:56:28.671Z,40.00
2023-08-02T05:58:55.279Z,40.40
2023-08-02T06:01:21.934Z,40.40
2023-08-02T06:03:48.657Z,40.68
2023-08-02T06:06:15.343Z,40.77
2023-08-02T06:08:41.974Z,40.73
2023-08-02T06:11:08.586Z,40.85
2023-08-02T06:13:35.195Z,40.61
2023-08-02T06:16:01.815Z,40.66
2023-08-02T06:18:28.499Z,40.66
2023-08-02T06:20:55.096Z,40.66
2023-08-02T06:23:21.698Z,40.45
2023-08-02T06:25:48.296Z,40.39
2023-08-02T06:28:14.902Z,40.18
2023-08-02T06:30:41.534Z,40.07
2023-08-02T06:33:08.186Z,40.13
2023-08-02T06:35:34.982Z,40.05
2023-08-02T06:38:01.689Z,40.15
2023-08-02T06:40:28.333Z,40.06
2023-08-02T06:42:54.966Z,40.14
2023-08-02T06:45:21.588Z,40.22
2023-08-02T06:47:48.239Z,40.23
2023-08-02T06:50:14.872Z,40.24
2023-08-02T06:52:41.479Z,40.28
2023-08-02T06:55:08.085Z,40.14
2023-08-02T06:57:34.694Z,40.28
2023-08-02T07:00:01.315Z,40.17
2023-08-02T07:02:27.981Z,40.12
2023-08-02T07:04:54.709Z,40.05
2023-08-02T07:07:21.397Z,40.15
2023-08-02T07:09:47.992Z,40.08
2023-08-02T07:12:14.642Z,40.01
2023-08-02T07:14:41.257Z,40.15
2023-08-02T07:17:07.850Z,40.14
2023-08-02T07:19:34.449Z,40.10
2023-08-02T07:22:01.043Z,40.19
2023-08-02T07:24:27.667Z,40.65
2023-08-02T07:26:54.281Z,40.21
2023-08-02T07:29:20.931Z,40.17
2023-08-02T07:31:47.624Z,40.03
2023-08-02T07:34:14.243Z,40.04
2023-08-02T07:36:40.841Z,39.88
2023-08-02T07:39:07.496Z,39.95
2023-08-02T07:41:34.132Z,39.91
2023-08-02T07:44:00.754Z,40.08
2023-08-02T07:46:27.428Z,40.12
2023-08-02T07:48:54.092Z,40.09
2023-08-02T07:51:20.742Z,39.98
2023-08-02T07:53:47.404Z,39.89
2023-08-02T07:56:14.039Z,40.03
2023-08-02T07:58:40.663Z,39.83
2023-08-02T08:01:07.267Z,39.86
2023-08-02T08:03:33.875Z,39.73
2023-08-02T08:06:00.513Z,39.97
2023-08-02T08:08:27.142Z,40.02
2023-08-02T08:10:53.753Z,40.09
2023-08-02T08:13:20.392Z,40.48
2023-08-02T08:15:46.971Z,40.44
2023-08-02T08:18:13.600Z,40.00
2023-08-02T08:20:40.224Z,39.98
2023-08-02T08:23:06.837Z,39.74
2023-08-02T08:25:33.439Z,39.54
2023-08-02T08:28:00.049Z,40.74
2023-08-02T08:30:26.669Z,40.43
2023-08-02T08:32:53.305Z,39.69
2023-08-02T08:35:19.936Z,39.86
2023-08-02T08:37:46.574Z,39.75
2023-08-02T08:40:18.992Z,39.85
2023-08-02T08:42:45.609Z,44.10
2023-08-02T08:45:12.513Z,44.96
2023-08-02T08:47:39.179Z,41.25
2023-08-02T08:50:05.874Z,40.72
2023-08-02T08:52:32.486Z,40.42
2023-08-02T08:54:59.100Z,40.24
2023-08-02T08:57:25.755Z,40.12
2023-08-02T08:59:52.381Z,41.01
2023-08-02T09:02:19.000Z,39.92
2023-08-02T09:04:45.618Z,40.18
2023-08-02T09:07:12.238Z,40.44
2023-08-02T09:09:38.837Z,40.26
2023-08-02T09:12:05.445Z,40.22
2023-08-02T09:14:32.057Z,40.34
2023-08-02T09:16:58.656Z,40.19
2023-08-02T09:19:25.552Z,40.59
2023-08-02T09:21:52.158Z,41.08
2023-08-02T09:24:18.780Z,41.21
2023-08-02T09:26:45.429Z,41.31
2023-08-02T09:29:12.027Z,41.20
2023-08-02T09:31:38.723Z,41.13
2023-08-02T09:34:05.432Z,41.13
2023-08-02T09:36:32.116Z,40.84
2023-08-02T09:38:58.716Z,40.96
2023-08-02T09:43:54.871Z,41.38
2023-08-02T09:46:21.523Z,41.31
2023-08-02T09:48:48.133Z,41.11
2023-08-02T09:51:14.736Z,40.72
2023-08-02T09:53:41.330Z,40.76
2023-08-02T09:56:07.935Z,40.68
2023-08-02T09:58:34.571Z,40.88
2023-08-02T10:01:01.185Z,40.24
2023-08-02T10:03:28.172Z,39.15
2023-08-02T10:05:54.881Z,39.25
2023-08-02T10:08:21.495Z,39.47
2023-08-02T10:10:48.100Z,39.62
2023-08-02T10:13:14.720Z,39.73
2023-08-02T10:15:41.414Z,40.00
2023-08-02T10:18:08.075Z,40.22
2023-08-02T10:20:34.731Z,40.14
2023-08-02T10:23:01.328Z,40.40
2023-08-02T10:25:27.956Z,40.15
2023-08-02T10:27:54.582Z,40.57
2023-08-02T10:30:21.192Z,40.50
2023-08-02T10:32:47.855Z,40.48
2023-08-02T10:35:14.503Z,40.63
2023-08-02T10:37:41.114Z,40.75
2023-08-02T10:40:07.726Z,40.74
2023-08-02T10:42:34.310Z,40.95
2023-08-02T10:45:00.921Z,40.73
2023-08-02T10:47:27.510Z,40.75
2023-08-02T10:49:54.124Z,40.67
2023-08-02T10:52:20.730Z,40.46
2023-08-02T10:54:47.329Z,39.88
2023-08-02T10:57:13.946Z,40.31
2023-08-02T10:59:40.536Z,40.66
2023-08-02T11:02:07.129Z,39.43
2023-08-02T11:04:33.850Z,39.60
2023-08-02T11:07:00.516Z,39.45
2023-08-02T11:09:27.170Z,39.55
2023-08-02T11:11:53.785Z,39.43
2023-08-02T11:14:20.405Z,39.35
2023-08-02T11:19:16.662Z,39.37
2023-08-02T11:21:43.373Z,39.19
2023-08-02T11:24:09.960Z,39.27
2023-08-02T11:29:06.080Z,39.24
2023-08-02T11:31:32.685Z,39.60
2023-08-02T11:33:59.292Z,39.54
2023-08-02T11:36:25.902Z,39.33
2023-08-02T11:38:52.570Z,39.41
2023-08-02T11:41:19.191Z,39.35
2023-08-02T11:43:45.849Z,39.24
2023-08-02T11:46:12.570Z,39.26
2023-08-02T11:48:39.217Z,39.04
2023-08-02T11:51:05.833Z,39.20
2023-08-02T11:53:32.505Z,39.43
2023-08-02T11:55:59.212Z,39.21
2023-08-02T11:58:25.880Z,38.92
2023-08-02T12:00:52.485Z,39.26
2023-08-02T12:03:19.096Z,38.84
2023-08-02T12:05:45.834Z,38.47
2023-08-02T12:08:12.532Z,38.73
2023-08-02T12:10:39.139Z,38.83
2023-08-02T12:13:05.736Z,38.47
2023-08-02T12:15:32.320Z,37.84
2023-08-02T12:17:58.943Z,38.32
2023-08-02T12:20:25.546Z,38.44
2023-08-02T12:22:52.144Z,38.16
2023-08-02T12:25:18.757Z,38.78
2023-08-02T12:27:45.357Z,39.69
2023-08-02T12:30:12.022Z,39.35
2023-08-02T12:32:38.670Z,39.58
2023-08-02T12:35:11.961Z,39.89
2023-08-02T12:37:39.574Z,39.77
2023-08-02T12:40:06.262Z,39.59
2023-08-02T12:42:34.253Z,39.51
2023-08-02T12:45:15.216Z,38.98
2023-08-02T12:47:44.253Z,39.15
2023-08-02T12:50:10.950Z,38.94
2023-08-02T12:52:37.605Z,38.52
2023-08-02T12:55:04.213Z,38.64
2023-08-02T12:57:30.819Z,38.19
2023-08-02T12:59:57.414Z,38.46
2023-08-02T13:02:24.004Z,38.26
2023-08-02T13:04:50.597Z,37.98
2023-08-02T13:07:18.638Z,38.14
2023-08-02T13:09:45.526Z,38.23
2023-08-02T13:12:13.990Z,38.31
2023-08-02T13:14:42.618Z,38.30
2023-08-02T13:17:09.232Z,38.28
2023-08-02T13:19:35.844Z,38.29
2023-08-02T13:22:02.484Z,38.29
2023-08-02T13:24:29.109Z,37.94
2023-08-02T13:26:55.707Z,37.19
2023-08-02T13:29:23.315Z,37.42
2023-08-02T13:31:50.168Z,36.91
2023-08-02T13:34:16.808Z,36.46
2023-08-02T13:36:44.235Z,36.71
2023-08-02T13:39:11.194Z,37.08
2023-08-02T13:41:40.580Z,36.52
2023-08-02T13:44:07.186Z,36.13
2023-08-02T13:46:33.817Z,36.12
2023-08-02T13:49:00.428Z,36.43
2023-08-02T13:51:27.069Z,36.49
2023-08-02T13:53:54.645Z,36.35
2023-08-02T13:56:21.405Z,35.88
2023-08-02T13:58:48.062Z,36.15
2023-08-02T14:01:14.690Z,36.84
2023-08-02T14:03:41.324Z,36.74
2023-08-02T14:06:07.997Z,35.79
2023-08-02T14:08:34.681Z,36.17
2023-08-02T14:11:01.277Z,35.98
2023-08-02T14:13:27.874Z,36.10
2023-08-02T14:15:54.545Z,36.17
2023-08-02T14:18:21.182Z,36.26
2023-08-02T14:20:47.849Z,36.26
2023-08-02T14:23:14.551Z,36.40
2023-08-02T14:25:41.177Z,37.04
2023-08-02T14:28:07.796Z,36.92
2023-08-02T14:30:34.404Z,36.66
2023-08-02T14:33:01.038Z,36.66
2023-08-02T14:35:27.679Z,37.10
2023-08-02T14:37:54.287Z,36.55
2023-08-02T14:40:20.885Z,36.65
2023-08-02T14:42:47.525Z,36.20
2023-08-02T14:45:14.157Z,36.46
2023-08-02T14:47:40.791Z,36.11
2023-08-02T14:50:07.420Z,36.46
2023-08-02T14:52:34.021Z,36.50
2023-08-02T14:55:00.656Z,36.55
2023-08-02T14:57:27.263Z,36.71
2023-08-02T14:59:53.851Z,36.61
2023-08-02T15:02:20.486Z,36.74
2023-08-02T15:04:47.168Z,36.55
2023-08-02T15:07:13.820Z,36.64
2023-08-02T15:09:40.440Z,36.82
2023-08-02T15:12:07.058Z,36.94
2023-08-02T15:14:33.674Z,36.97
2023-08-02T15:17:00.385Z,36.81
2023-08-02T15:19:27.137Z,36.39
2023-08-02T15:21:53.740Z,36.33
2023-08-02T15:24:20.354Z,36.17
2023-08-02T15:26:46.952Z,36.30
2023-08-02T15:29:13.555Z,36.52
2023-08-02T15:31:40.178Z,36.89
2023-08-02T15:34:08.278Z,36.36
2023-08-02T15:36:36.025Z,36.37
2023-08-02T15:39:02.626Z,36.56
2023-08-02T15:41:29.236Z,36.33
2023-08-02T15:43:55.834Z,36.25
2023-08-02T15:46:22.570Z,36.21
2023-08-02T15:48:49.220Z,36.73
2023-08-02T15:51:15.826Z,36.16
2023-08-02T15:53:42.414Z,36.20
2023-08-02T15:56:09.001Z,36.23
2023-08-02T15:58:35.661Z,36.50
2023-08-02T16:01:02.346Z,36.47
2023-08-02T16:03:28.977Z,36.28
2023-08-02T16:05:55.585Z,36.39
2023-08-02T16:08:22.195Z,36.32
2023-08-02T16:10:48.784Z,36.39
2023-08-02T16:13:15.386Z,36.43
2023-08-02T16:15:41.988Z,36.38
2023-08-02T16:18:08.640Z,36.79
2023-08-02T16:20:35.300Z,37.60
2023-08-02T16:23:01.895Z,37.56
2023-08-02T16:25:28.493Z,37.55
2023-08-02T16:27:55.119Z,38.60
2023-08-02T16:30:21.735Z,38.73
2023-08-02T16:32:48.435Z,38.93
2023-08-02T16:35:15.063Z,39.11
2023-08-02T16:37:41.660Z,39.09
2023-08-02T16:40:08.285Z,38.96
2023-08-02T16:42:34.945Z,38.69
2023-08-02T16:45:01.556Z,38.78
2023-08-02T16:47:28.209Z,38.75
2023-08-02T16:49:54.846Z,38.75
2023-08-02T16:52:24.037Z,38.98
2023-08-02T16:54:50.835Z,39.24
2023-08-02T16:57:17.446Z,39.57
2023-08-02T16:59:44.051Z,39.78
2023-08-02T17:02:10.719Z,40.00
2023-08-02T17:04:37.386Z,40.56
2023-08-02T17:07:04.019Z,40.47
2023-08-02T17:09:30.660Z,41.14
2023-08-02T17:11:57.278Z,40.39
2023-08-02T17:14:23.896Z,40.69
2023-08-02T17:16:50.504Z,40.56
2023-08-02T17:19:17.126Z,40.34
2023-08-02T17:21:46.523Z,40.90
2023-08-02T17:24:14.471Z,40.90
2023-08-02T17:26:41.075Z,40.84
2023-08-02T17:29:07.706Z,41.08
2023-08-02T17:31:34.317Z,41.78
2023-08-02T17:34:01.004Z,42.21
2023-08-02T17:36:27.660Z,41.32
2023-08-02T17:38:54.260Z,40.87
2023-08-02T17:41:20.851Z,41.29
2023-08-02T17:43:47.459Z,42.53
2023-08-02T17:46:14.084Z,41.74
2023-08-02T17:48:42.862Z,43.31
2023-08-02T17:51:09.555Z,43.32
2023-08-02T17:53:36.153Z,43.40
2023-08-02T17:56:02.746Z,41.80
2023-08-02T17:58:29.339Z,41.52
2023-08-02T18:00:55.971Z,41.88
2023-08-02T18:03:22.577Z,41.29
2023-08-02T18:05:49.198Z,41.61
2023-08-02T18:08:15.889Z,41.86
2023-08-02T18:10:42.540Z,41.47
2023-08-02T18:13:09.146Z,41.12
2023-08-02T18:15:35.744Z,41.33
2023-08-02T18:18:02.482Z,41.11
2023-08-02T18:20:29.158Z,41.37
2023-08-02T18:22:55.938Z,41.51
2023-08-02T18:25:23.157Z,41.54
2023-08-02T18:27:49.753Z,40.91
2023-08-02T18:30:16.363Z,40.92
2023-08-02T18:32:43.060Z,41.06
2023-08-02T18:35:09.680Z,41.00
2023-08-02T18:37:36.317Z,41.14
2023-08-02T18:40:02.924Z,41.55
2023-08-02T18:42:29.518Z,41.41
2023-08-02T18:44:56.121Z,41.66
2023-08-02T18:47:22.746Z,41.50
2023-08-02T18:49:49.395Z,41.43
2023-08-02T18:52:16.003Z,41.28
2023-08-02T18:54:42.595Z,41.30
2023-08-02T18:57:09.219Z,41.83
2023-08-02T18:59:35.850Z,41.77
2023-08-02T19:02:02.464Z,41.66
2023-08-02T19:04:29.128Z,41.86
2023-08-02T19:06:55.735Z,42.25
2023-08-02T19:09:22.328Z,41.94
2023-08-02T19:11:48.936Z,42.45
2023-08-02T19:14:15.518Z,42.27
2023-08-02T19:16:42.142Z,41.79
2023-08-02T19:19:08.793Z,41.70
2023-08-02T19:21:35.412Z,41.67
2023-08-02T19:24:02.004Z,41.81
2023-08-02T19:26:28.616Z,41.89
2023-08-02T19:28:55.245Z,42.05
2023-08-02T19:31:21.940Z,42.35
2023-08-02T19:33:48.621Z,42.35
2023-08-02T19:36:15.215Z,43.26
2023-08-02T19:38:41.810Z,43.39
2023-08-02T19:41:08.416Z,43.33
2023-08-02T19:43:35.007Z,43.78
2023-08-02T19:46:01.619Z,43.29
2023-08-02T19:48:28.211Z,43.82
2023-08-02T19:50:54.797Z,43.91
2023-08-02T19:53:21.412Z,43.84
2023-08-02T19:55:48.006Z,43.57
2023-08-02T19:58:14.624Z,43.59
2023-08-02T20:00:41.261Z,43.51
2023-08-02T20:03:07.903Z,43.41
2023-08-02T20:05:34.517Z,43.30
2023-08-02T20:08:01.114Z,43.31
2023-08-02T20:10:27.732Z,42.93
2023-08-02T20:12:54.327Z,42.89
2023-08-02T20:15:20.921Z,42.81
2023-08-02T20:17:47.670Z,42.95
2023-08-02T20:20:14.357Z,43.00
2023-08-02T20:22:42.364Z,43.10
2023-08-02T20:25:10.287Z,43.19
2023-08-02T20:27:36.876Z,43.43
2023-08-02T20:30:03.519Z,43.44
2023-08-02T20:32:30.187Z,43.37
2023-08-02T20:34:56.836Z,43.33
2023-08-02T20:37:23.464Z,43.18
2023-08-02T20:39:50.081Z,43.33
2023-08-02T20:42:16.686Z,43.25
2023-08-02T20:44:43.278Z,43.17
2023-08-02T20:47:09.885Z,42.92
2023-08-02T20:49:36.484Z,42.74
2023-08-02T20:52:03.081Z,42.65
2023-08-02T20:54:29.667Z,42.37
2023-08-02T20:56:56.257Z,42.24
2023-08-02T20:59:22.856Z,42.35
2023-08-02T21:01:49.484Z,42.40
2023-08-02T21:04:16.114Z,42.51
2023-08-02T21:06:44.846Z,42.41
2023-08-02T21:09:13.079Z,42.40
2023-08-02T21:11:39.711Z,42.30
2023-08-02T21:14:06.331Z,42.20
2023-08-02T21:16:33.027Z,42.14
2023-08-02T21:18:59.647Z,41.93
2023-08-02T21:21:26.234Z,41.89
2023-08-02T21:23:52.847Z,41.94
2023-08-02T21:26:19.443Z,41.94
2023-08-02T21:28:46.025Z,41.70
2023-08-02T21:31:12.740Z,41.65
2023-08-02T21:33:39.487Z,41.56
2023-08-02T21:36:06.089Z,41.50
2023-08-02T21:38:32.730Z,41.34
2023-08-02T21:40:59.336Z,41.26
2023-08-02T21:43:25.944Z,41.22
2023-08-02T21:45:52.593Z,41.30
2023-08-02T21:48:19.209Z,41.31
2023-08-02T21:50:45.855Z,41.15
2023-08-02T21:53:12.458Z,41.14
2023-08-02T21:55:39.063Z,41.10
2023-08-02T21:58:05.663Z,41.07
2023-08-02T22:00:32.269Z,41.05
2023-08-02T22:02:58.882Z,41.08
2023-08-02T22:05:25.517Z,41.13
2023-08-02T22:07:52.106Z,40.93
2023-08-02T22:10:18.751Z,40.92
2023-08-02T22:12:45.361Z,40.77
2023-08-02T22:15:11.964Z,40.75
2023-08-02T22:17:38.615Z,40.59
2023-08-02T22:20:05.230Z,40.41
2023-08-02T22:22:31.863Z,40.34
2023-08-02T22:24:58.459Z,40.21
2023-08-02T22:27:25.065Z,40.25
2023-08-02T22:29:58.993Z,40.03
2023-08-02T22:32:26.423Z,40.02
2023-08-02T22:34:53.015Z,40.02
2023-08-02T22:37:19.607Z,39.97
2023-08-02T22:39:46.201Z,39.82
2023-08-02T22:42:12.808Z,39.94
2023-08-02T22:44:39.425Z,39.98
2023-08-02T22:47:06.038Z,39.77
2023-08-02T22:52:02.169Z,39.74
2023-08-02T22:54:28.784Z,39.72
2023-08-02T22:56:55.381Z,39.73
2023-08-02T22:59:21.968Z,39.85
2023-08-02T23:01:48.568Z,39.87
2023-08-02T23:04:15.298Z,39.79
2023-08-02T23:06:42.066Z,39.85
2023-08-02T23:09:08.700Z,39.86
2023-08-02T23:11:35.283Z,39.98
2023-08-02T23:14:01.889Z,39.86
2023-08-02T23:16:28.548Z,40.01
2023-08-02T23:18:55.158Z,39.83
2023-08-02T23:21:21.762Z,39.89
2023-08-02T23:23:48.355Z,39.77
2023-08-02T23:26:14.953Z,39.67
2023-08-02T23:28:41.548Z,39.62
2023-08-02T23:31:08.183Z,39.62
2023-08-02T23:33:35.014Z,39.71
2023-08-02T23:36:01.650Z,39.72
2023-08-02T23:38:28.271Z,39.84
2023-08-02T23:40:54.871Z,39.82
2023-08-02T23:43:21.469Z,39.70
2023-08-02T23:45:48.115Z,39.66
2023-08-02T23:48:14.763Z,39.68
2023-08-02T23:50:41.372Z,39.76
2023-08-02T23:53:07.968Z,39.52
2023-08-02T23:55:34.543Z,39.67
2023-08-02T23:58:01.173Z,39.68
